This is the latest recevied weather packets stored in our database for station/object SP4MAZ-13. If no packets are shown the sender has not sent any weather packets the latest 10 day(s).
| Time | Temp. | Humidity | Pressure | Rain* | Wind** | Luminosity | Snow |
|---|---|---|---|---|---|---|---|
| 1777617018 | 11.11° C | 50% | 2147.4 hPa | - | - | - | - |
| 1777616714 | 10° C | 55% | 2147.4 hPa | - | - | - | - |
| 1777616412 | 10.56° C | 53% | 2147.4 hPa | - | - | - | - |
| 1777616108 | 10.56° C | 54% | 2147.4 hPa | - | - | - | - |
| 1777615805 | 10.56° C | 52% | 2147.4 hPa | - | - | - | - |
| 1777615501 | 10.56° C | 52% | 2147.4 hPa | - | - | - | - |
| 1777615198 | 10.56° C | 52% | 2147.4 hPa | - | - | - | - |
| 1777614894 | 10.56° C | 55% | 2147.4 hPa | - | - | - | - |
| 1777614591 | 10.56° C | 55% | 2147.4 hPa | - | - | - | - |
| 1777614287 | 10° C | 57% | 2147.4 hPa | - | - | - | - |
| 1777613984 | 10.56° C | 56% | 2147.4 hPa | - | - | - | - |
| 1777613680 | 10.56° C | 57% | 2147.4 hPa | - | - | - | - |
| 1777613377 | 10.56° C | 54% | 2147.4 hPa | - | - | - | - |
| 1777613073 | 10.56° C | 59% | 2147.4 hPa | - | - | - | - |
| 1777612770 | 11.11° C | 58% | 2147.4 hPa | - | - | - | - |
| 1777612466 | 10.56° C | 56% | 2147.4 hPa | - | - | - | - |
| 1777612163 | 10° C | 57% | 2147.4 hPa | - | - | - | - |
| 1777611860 | 10° C | 59% | 2147.4 hPa | - | - | - | - |
| 1777611556 | 10.56° C | 57% | 2147.4 hPa | - | - | - | - |
| 1777611253 | 11.67° C | 54% | 2147.4 hPa | - | - | - | - |
| 1777610949 | 13.89° C | 49% | 2147.4 hPa | - | - | - | - |
| 1777610646 | 13.89° C | 50% | 2147.4 hPa | - | - | - | - |
| 1777610343 | 13.33° C | 51% | 2147.4 hPa | - | - | - | - |
| 1777610039 | 12.78° C | 51% | 2147.4 hPa | - | - | - | - |
| 1777609736 | 12.22° C | 54% | 2147.4 hPa | - | - | - | - |
* Rain since midnight (hover to see other rain measurements)
** Current wind speed in m/s (hover to see current wind gust speed)